sensor_id;sensor_type;location;lat;lon;timestamp;temperature;humidity
35690;DHT22;26977;44.830;-0.674;2022-10-31T00:02:11;15.90;99.90
35690;DHT22;26977;44.830;-0.674;2022-10-31T00:04:37;16.00;99.90
35690;DHT22;26977;44.830;-0.674;2022-10-31T00:07:02;16.00;99.90
35690;DHT22;26977;44.830;-0.674;2022-10-31T00:09:28;16.00;99.90
35690;DHT22;26977;44.830;-0.674;2022-10-31T00:11:53;16.00;99.90
35690;DHT22;26977;44.830;-0.674;2022-10-31T00:14:19;16.00;99.90
35690;DHT22;26977;44.830;-0.674;2022-10-31T00:16:45;15.90;99.90
35690;DHT22;26977;44.830;-0.674;2022-10-31T00:19:10;15.90;99.90
35690;DHT22;26977;44.830;-0.674;2022-10-31T00:21:36;15.80;99.90
35690;DHT22;26977;44.830;-0.674;2022-10-31T00:24:02;15.80;99.90
35690;DHT22;26977;44.830;-0.674;2022-10-31T00:26:30;15.80;99.90
35690;DHT22;26977;44.830;-0.674;2022-10-31T00:28:57;15.80;99.90
35690;DHT22;26977;44.830;-0.674;2022-10-31T00:31:22;15.80;99.90
35690;DHT22;26977;44.830;-0.674;2022-10-31T00:33:48;15.80;99.90
35690;DHT22;26977;44.830;-0.674;2022-10-31T00:36:16;15.80;99.90
35690;DHT22;26977;44.830;-0.674;2022-10-31T00:38:43;15.80;99.90
35690;DHT22;26977;44.830;-0.674;2022-10-31T00:41:10;15.80;99.90
35690;DHT22;26977;44.830;-0.674;2022-10-31T00:43:36;15.90;99.90
35690;DHT22;26977;44.830;-0.674;2022-10-31T00:46:02;16.00;99.90
35690;DHT22;26977;44.830;-0.674;2022-10-31T00:48:28;16.00;99.90
35690;DHT22;26977;44.830;-0.674;2022-10-31T00:50:54;16.00;99.90
35690;DHT22;26977;44.830;-0.674;2022-10-31T00:53:19;15.90;99.90
35690;DHT22;26977;44.830;-0.674;2022-10-31T00:55:45;15.80;99.90
35690;DHT22;26977;44.830;-0.674;2022-10-31T00:58:11;15.90;99.90
35690;DHT22;26977;44.830;-0.674;2022-10-31T01:00:36;15.90;99.90
35690;DHT22;26977;44.830;-0.674;2022-10-31T01:03:02;16.00;99.90
35690;DHT22;26977;44.830;-0.674;2022-10-31T01:05:28;16.10;99.90
35690;DHT22;26977;44.830;-0.674;2022-10-31T01:07:54;16.20;99.90
35690;DHT22;26977;44.830;-0.674;2022-10-31T01:10:20;16.30;99.90
35690;DHT22;26977;44.830;-0.674;2022-10-31T01:12:46;16.30;99.90
35690;DHT22;26977;44.830;-0.674;2022-10-31T01:15:14;16.30;99.90
35690;DHT22;26977;44.830;-0.674;2022-10-31T01:17:40;16.20;99.90
35690;DHT22;26977;44.830;-0.674;2022-10-31T01:20:07;16.10;99.90
35690;DHT22;26977;44.830;-0.674;2022-10-31T01:22:33;16.00;99.90
35690;DHT22;26977;44.830;-0.674;2022-10-31T01:24:59;15.90;99.90
35690;DHT22;26977;44.830;-0.674;2022-10-31T01:27:25;15.80;99.90
35690;DHT22;26977;44.830;-0.674;2022-10-31T01:29:51;15.70;99.90
35690;DHT22;26977;44.830;-0.674;2022-10-31T01:32:16;15.70;99.90
35690;DHT22;26977;44.830;-0.674;2022-10-31T01:34:42;15.70;99.90
35690;DHT22;26977;44.830;-0.674;2022-10-31T01:37:08;15.70;99.90
35690;DHT22;26977;44.830;-0.674;2022-10-31T01:39:33;15.60;99.90
35690;DHT22;26977;44.830;-0.674;2022-10-31T01:41:59;15.60;99.90
35690;DHT22;26977;44.830;-0.674;2022-10-31T01:47:46;15.60;99.90
35690;DHT22;26977;44.830;-0.674;2022-10-31T01:49:56;15.60;99.90
35690;DHT22;26977;44.830;-0.674;2022-10-31T01:52:42;15.50;99.90
35690;DHT22;26977;44.830;-0.674;2022-10-31T01:55:22;15.50;99.90
35690;DHT22;26977;44.830;-0.674;2022-10-31T01:57:51;15.40;99.90
35690;DHT22;26977;44.830;-0.674;2022-10-31T02:00:19;15.40;99.90
35690;DHT22;26977;44.830;-0.674;2022-10-31T02:02:45;15.30;99.90
35690;DHT22;26977;44.830;-0.674;2022-10-31T02:05:21;15.30;99.90
35690;DHT22;26977;44.830;-0.674;2022-10-31T02:07:58;15.30;99.90
35690;DHT22;26977;44.830;-0.674;2022-10-31T02:10:25;15.20;99.90
35690;DHT22;26977;44.830;-0.674;2022-10-31T02:12:55;15.20;99.90
35690;DHT22;26977;44.830;-0.674;2022-10-31T02:15:22;15.20;99.90
35690;DHT22;26977;44.830;-0.674;2022-10-31T02:17:48;15.20;99.90
35690;DHT22;26977;44.830;-0.674;2022-10-31T02:20:22;15.20;99.90
35690;DHT22;26977;44.830;-0.674;2022-10-31T02:23:20;15.20;99.90
35690;DHT22;26977;44.830;-0.674;2022-10-31T02:34:17;15.10;99.90
35690;DHT22;26977;44.830;-0.674;2022-10-31T02:36:57;15.00;99.90
35690;DHT22;26977;44.830;-0.674;2022-10-31T02:42:32;14.90;99.90
35690;DHT22;26977;44.830;-0.674;2022-10-31T02:45:07;14.90;99.90
35690;DHT22;26977;44.830;-0.674;2022-10-31T02:47:37;14.90;99.90
35690;DHT22;26977;44.830;-0.674;2022-10-31T02:50:12;14.90;99.90
35690;DHT22;26977;44.830;-0.674;2022-10-31T02:52:39;14.90;99.90
35690;DHT22;26977;44.830;-0.674;2022-10-31T02:57:58;14.80;99.90
35690;DHT22;26977;44.830;-0.674;2022-10-31T03:00:26;14.80;99.90
35690;DHT22;26977;44.830;-0.674;2022-10-31T03:10:58;15.00;99.90
35690;DHT22;26977;44.830;-0.674;2022-10-31T03:14:15;15.00;99.90
35690;DHT22;26977;44.830;-0.674;2022-10-31T03:18:50;14.90;99.90
35690;DHT22;26977;44.830;-0.674;2022-10-31T03:21:32;14.90;99.90
35690;DHT22;26977;44.830;-0.674;2022-10-31T03:24:00;14.80;99.90
35690;DHT22;26977;44.830;-0.674;2022-10-31T03:26:26;14.80;99.90
35690;DHT22;26977;44.830;-0.674;2022-10-31T03:29:02;14.70;99.90
35690;DHT22;26977;44.830;-0.674;2022-10-31T03:31:53;14.70;99.90
35690;DHT22;26977;44.830;-0.674;2022-10-31T03:34:18;14.70;99.90
35690;DHT22;26977;44.830;-0.674;2022-10-31T03:36:50;14.80;99.90
35690;DHT22;26977;44.830;-0.674;2022-10-31T03:39:19;14.80;99.90
35690;DHT22;26977;44.830;-0.674;2022-10-31T03:42:10;14.60;99.90
35690;DHT22;26977;44.830;-0.674;2022-10-31T03:44:35;14.60;99.90
35690;DHT22;26977;44.830;-0.674;2022-10-31T03:47:03;14.50;99.90
35690;DHT22;26977;44.830;-0.674;2022-10-31T03:49:30;14.40;99.90
35690;DHT22;26977;44.830;-0.674;2022-10-31T04:00:21;14.20;99.90
35690;DHT22;26977;44.830;-0.674;2022-10-31T04:02:58;14.20;99.90
35690;DHT22;26977;44.830;-0.674;2022-10-31T04:05:25;14.20;99.90
35690;DHT22;26977;44.830;-0.674;2022-10-31T04:07:54;14.20;99.90
35690;DHT22;26977;44.830;-0.674;2022-10-31T04:10:23;14.20;99.90
35690;DHT22;26977;44.830;-0.674;2022-10-31T04:12:55;14.20;99.90
35690;DHT22;26977;44.830;-0.674;2022-10-31T04:15:23;14.10;99.90
35690;DHT22;26977;44.830;-0.674;2022-10-31T04:17:53;14.10;99.90
35690;DHT22;26977;44.830;-0.674;2022-10-31T04:20:39;14.10;99.90
35690;DHT22;26977;44.830;-0.674;2022-10-31T04:23:05;14.10;99.90
35690;DHT22;26977;44.830;-0.674;2022-10-31T04:25:36;14.10;99.90
35690;DHT22;26977;44.830;-0.674;2022-10-31T04:28:01;14.10;99.90
35690;DHT22;26977;44.830;-0.674;2022-10-31T04:30:27;14.10;99.90
35690;DHT22;26977;44.830;-0.674;2022-10-31T04:32:53;14.10;99.90
35690;DHT22;26977;44.830;-0.674;2022-10-31T04:35:18;14.10;99.90
35690;DHT22;26977;44.830;-0.674;2022-10-31T04:37:44;14.00;99.90
35690;DHT22;26977;44.830;-0.674;2022-10-31T04:40:10;14.10;99.90
35690;DHT22;26977;44.830;-0.674;2022-10-31T04:42:36;14.00;99.90
35690;DHT22;26977;44.830;-0.674;2022-10-31T04:45:01;14.10;99.90
35690;DHT22;26977;44.830;-0.674;2022-10-31T04:47:27;14.10;99.90
35690;DHT22;26977;44.830;-0.674;2022-10-31T04:49:55;14.10;99.90
35690;DHT22;26977;44.830;-0.674;2022-10-31T04:52:21;14.10;99.90
35690;DHT22;26977;44.830;-0.674;2022-10-31T04:54:46;14.10;99.90
35690;DHT22;26977;44.830;-0.674;2022-10-31T04:57:12;14.10;99.90
35690;DHT22;26977;44.830;-0.674;2022-10-31T04:59:38;14.10;99.90
35690;DHT22;26977;44.830;-0.674;2022-10-31T05:02:03;14.10;99.90
35690;DHT22;26977;44.830;-0.674;2022-10-31T05:04:29;14.10;99.90
35690;DHT22;26977;44.830;-0.674;2022-10-31T05:06:55;14.00;99.90
35690;DHT22;26977;44.830;-0.674;2022-10-31T05:09:20;14.00;99.90
35690;DHT22;26977;44.830;-0.674;2022-10-31T05:11:46;14.00;99.90
35690;DHT22;26977;44.830;-0.674;2022-10-31T05:14:11;14.00;99.90
35690;DHT22;26977;44.830;-0.674;2022-10-31T05:16:37;14.00;99.90
35690;DHT22;26977;44.830;-0.674;2022-10-31T05:19:02;14.10;99.90
35690;DHT22;26977;44.830;-0.674;2022-10-31T05:21:28;14.00;99.90
35690;DHT22;26977;44.830;-0.674;2022-10-31T05:23:54;14.00;99.90
35690;DHT22;26977;44.830;-0.674;2022-10-31T05:26:19;14.00;99.90
35690;DHT22;26977;44.830;-0.674;2022-10-31T05:28:45;14.00;99.90
35690;DHT22;26977;44.830;-0.674;2022-10-31T05:31:11;14.00;99.90
35690;DHT22;26977;44.830;-0.674;2022-10-31T05:33:36;14.00;99.90
35690;DHT22;26977;44.830;-0.674;2022-10-31T05:36:02;14.00;99.90
35690;DHT22;26977;44.830;-0.674;2022-10-31T05:38:28;13.90;99.90
35690;DHT22;26977;44.830;-0.674;2022-10-31T05:40:56;13.90;99.90
35690;DHT22;26977;44.830;-0.674;2022-10-31T05:43:26;13.90;99.90
35690;DHT22;26977;44.830;-0.674;2022-10-31T05:45:56;13.90;99.90
35690;DHT22;26977;44.830;-0.674;2022-10-31T05:48:22;13.90;99.90
35690;DHT22;26977;44.830;-0.674;2022-10-31T05:50:48;13.90;99.90
35690;DHT22;26977;44.830;-0.674;2022-10-31T05:53:14;13.90;99.90
35690;DHT22;26977;44.830;-0.674;2022-10-31T05:55:42;13.90;99.90
35690;DHT22;26977;44.830;-0.674;2022-10-31T05:58:08;13.90;99.90
35690;DHT22;26977;44.830;-0.674;2022-10-31T06:00:34;13.90;99.90
35690;DHT22;26977;44.830;-0.674;2022-10-31T06:03:05;13.90;99.90
35690;DHT22;26977;44.830;-0.674;2022-10-31T06:05:32;13.90;99.90
35690;DHT22;26977;44.830;-0.674;2022-10-31T06:07:57;13.90;99.90
35690;DHT22;26977;44.830;-0.674;2022-10-31T06:10:24;13.80;99.90
35690;DHT22;26977;44.830;-0.674;2022-10-31T06:12:49;13.80;99.90
35690;DHT22;26977;44.830;-0.674;2022-10-31T06:15:15;13.80;99.90
35690;DHT22;26977;44.830;-0.674;2022-10-31T06:17:41;13.80;99.90
35690;DHT22;26977;44.830;-0.674;2022-10-31T06:20:07;13.70;99.90
35690;DHT22;26977;44.830;-0.674;2022-10-31T06:22:33;13.80;99.90
35690;DHT22;26977;44.830;-0.674;2022-10-31T06:24:59;13.70;99.90
35690;DHT22;26977;44.830;-0.674;2022-10-31T06:27:25;13.80;99.90
35690;DHT22;26977;44.830;-0.674;2022-10-31T06:29:51;13.70;99.90
35690;DHT22;26977;44.830;-0.674;2022-10-31T06:32:17;13.80;99.90
35690;DHT22;26977;44.830;-0.674;2022-10-31T06:34:43;13.70;99.90
35690;DHT22;26977;44.830;-0.674;2022-10-31T06:37:10;13.80;99.90
35690;DHT22;26977;44.830;-0.674;2022-10-31T06:39:36;13.70;99.90
35690;DHT22;26977;44.830;-0.674;2022-10-31T06:42:03;13.80;99.90
35690;DHT22;26977;44.830;-0.674;2022-10-31T06:44:28;13.80;99.90
35690;DHT22;26977;44.830;-0.674;2022-10-31T06:46:54;13.80;99.90
35690;DHT22;26977;44.830;-0.674;2022-10-31T06:49:21;13.70;99.90
35690;DHT22;26977;44.830;-0.674;2022-10-31T06:51:50;13.70;99.90
35690;DHT22;26977;44.830;-0.674;2022-10-31T06:54:16;13.70;99.90
35690;DHT22;26977;44.830;-0.674;2022-10-31T06:56:42;13.70;99.90
35690;DHT22;26977;44.830;-0.674;2022-10-31T06:59:10;13.80;99.90
35690;DHT22;26977;44.830;-0.674;2022-10-31T07:01:36;13.70;99.90
35690;DHT22;26977;44.830;-0.674;2022-10-31T07:04:01;13.70;99.90
35690;DHT22;26977;44.830;-0.674;2022-10-31T07:06:27;13.70;99.90
35690;DHT22;26977;44.830;-0.674;2022-10-31T07:08:53;13.70;99.90
35690;DHT22;26977;44.830;-0.674;2022-10-31T07:11:18;13.70;99.90
35690;DHT22;26977;44.830;-0.674;2022-10-31T07:13:44;13.70;99.90
35690;DHT22;26977;44.830;-0.674;2022-10-31T07:16:10;13.70;99.90
35690;DHT22;26977;44.830;-0.674;2022-10-31T07:18:38;13.70;99.90
35690;DHT22;26977;44.830;-0.674;2022-10-31T07:21:04;13.80;99.90
35690;DHT22;26977;44.830;-0.674;2022-10-31T07:23:30;13.80;99.90
35690;DHT22;26977;44.830;-0.674;2022-10-31T07:25:56;13.80;99.90
35690;DHT22;26977;44.830;-0.674;2022-10-31T07:28:23;13.90;99.90
35690;DHT22;26977;44.830;-0.674;2022-10-31T07:30:53;14.00;99.90
35690;DHT22;26977;44.830;-0.674;2022-10-31T07:33:19;14.00;99.90
35690;DHT22;26977;44.830;-0.674;2022-10-31T07:35:45;14.10;99.90
35690;DHT22;26977;44.830;-0.674;2022-10-31T07:38:12;14.10;99.90
35690;DHT22;26977;44.830;-0.674;2022-10-31T07:40:39;14.10;99.90
35690;DHT22;26977;44.830;-0.674;2022-10-31T07:43:05;14.10;99.90
35690;DHT22;26977;44.830;-0.674;2022-10-31T07:45:31;14.20;99.90
35690;DHT22;26977;44.830;-0.674;2022-10-31T07:47:57;14.20;99.90
35690;DHT22;26977;44.830;-0.674;2022-10-31T07:50:25;14.30;99.90
35690;DHT22;26977;44.830;-0.674;2022-10-31T07:53:04;14.30;99.90
35690;DHT22;26977;44.830;-0.674;2022-10-31T07:55:30;14.30;99.90
35690;DHT22;26977;44.830;-0.674;2022-10-31T07:58:01;14.40;99.90
35690;DHT22;26977;44.830;-0.674;2022-10-31T08:00:27;14.40;99.90
35690;DHT22;26977;44.830;-0.674;2022-10-31T08:03:00;14.50;99.90
35690;DHT22;26977;44.830;-0.674;2022-10-31T08:05:26;14.60;99.90
35690;DHT22;26977;44.830;-0.674;2022-10-31T08:07:52;14.60;99.90
35690;DHT22;26977;44.830;-0.674;2022-10-31T08:10:18;14.70;99.90
35690;DHT22;26977;44.830;-0.674;2022-10-31T08:12:44;14.80;99.90
35690;DHT22;26977;44.830;-0.674;2022-10-31T08:15:09;14.90;99.90
35690;DHT22;26977;44.830;-0.674;2022-10-31T08:17:36;14.90;99.90
35690;DHT22;26977;44.830;-0.674;2022-10-31T08:20:07;15.00;99.90
35690;DHT22;26977;44.830;-0.674;2022-10-31T08:22:32;14.90;99.90
35690;DHT22;26977;44.830;-0.674;2022-10-31T08:24:58;14.90;99.90
35690;DHT22;26977;44.830;-0.674;2022-10-31T08:27:24;14.90;99.90
35690;DHT22;26977;44.830;-0.674;2022-10-31T08:29:49;14.90;99.90
35690;DHT22;26977;44.830;-0.674;2022-10-31T08:32:15;15.00;99.90
35690;DHT22;26977;44.830;-0.674;2022-10-31T08:34:41;15.20;99.90
35690;DHT22;26977;44.830;-0.674;2022-10-31T08:37:06;15.40;99.90
35690;DHT22;26977;44.830;-0.674;2022-10-31T08:39:32;15.50;99.90
35690;DHT22;26977;44.830;-0.674;2022-10-31T08:41:58;15.60;99.90
35690;DHT22;26977;44.830;-0.674;2022-10-31T08:44:23;15.70;99.90
35690;DHT22;26977;44.830;-0.674;2022-10-31T08:46:49;15.80;99.90
35690;DHT22;26977;44.830;-0.674;2022-10-31T08:49:14;15.70;99.90
35690;DHT22;26977;44.830;-0.674;2022-10-31T08:51:40;15.70;99.90
35690;DHT22;26977;44.830;-0.674;2022-10-31T08:54:06;15.70;99.90
35690;DHT22;26977;44.830;-0.674;2022-10-31T08:56:31;15.70;99.90
35690;DHT22;26977;44.830;-0.674;2022-10-31T08:58:57;15.80;99.90
35690;DHT22;26977;44.830;-0.674;2022-10-31T09:01:23;15.90;99.90
35690;DHT22;26977;44.830;-0.674;2022-10-31T09:03:48;15.90;99.90
35690;DHT22;26977;44.830;-0.674;2022-10-31T09:06:14;16.00;99.90
35690;DHT22;26977;44.830;-0.674;2022-10-31T09:08:40;15.90;99.90
35690;DHT22;26977;44.830;-0.674;2022-10-31T09:11:05;16.00;99.90
35690;DHT22;26977;44.830;-0.674;2022-10-31T09:13:32;16.00;99.90
35690;DHT22;26977;44.830;-0.674;2022-10-31T09:15:57;16.10;99.90
35690;DHT22;26977;44.830;-0.674;2022-10-31T09:18:24;16.20;99.90
35690;DHT22;26977;44.830;-0.674;2022-10-31T09:20:50;16.30;99.90
35690;DHT22;26977;44.830;-0.674;2022-10-31T09:23:21;16.40;99.90
35690;DHT22;26977;44.830;-0.674;2022-10-31T09:25:48;16.40;99.90
35690;DHT22;26977;44.830;-0.674;2022-10-31T09:28:16;16.50;99.90
35690;DHT22;26977;44.830;-0.674;2022-10-31T09:30:46;16.60;99.90
35690;DHT22;26977;44.830;-0.674;2022-10-31T09:33:13;16.70;99.90
35690;DHT22;26977;44.830;-0.674;2022-10-31T09:35:40;16.70;99.90
35690;DHT22;26977;44.830;-0.674;2022-10-31T09:38:16;16.80;99.90
35690;DHT22;26977;44.830;-0.674;2022-10-31T09:43:34;16.90;99.90
35690;DHT22;26977;44.830;-0.674;2022-10-31T09:51:45;17.10;99.90
35690;DHT22;26977;44.830;-0.674;2022-10-31T09:54:46;17.20;99.90
35690;DHT22;26977;44.830;-0.674;2022-10-31T09:57:24;17.30;99.90
35690;DHT22;26977;44.830;-0.674;2022-10-31T09:59:51;17.40;99.90
35690;DHT22;26977;44.830;-0.674;2022-10-31T10:05:11;17.60;99.90
35690;DHT22;26977;44.830;-0.674;2022-10-31T10:10:59;18.20;99.90
35690;DHT22;26977;44.830;-0.674;2022-10-31T10:19:38;18.60;99.90
35690;DHT22;26977;44.830;-0.674;2022-10-31T10:22:18;18.50;99.90
35690;DHT22;26977;44.830;-0.674;2022-10-31T10:33:32;18.20;99.90
35690;DHT22;26977;44.830;-0.674;2022-10-31T10:36:05;18.20;99.90
35690;DHT22;26977;44.830;-0.674;2022-10-31T10:41:23;18.10;99.90
35690;DHT22;26977;44.830;-0.674;2022-10-31T10:43:50;18.10;99.90
35690;DHT22;26977;44.830;-0.674;2022-10-31T11:00:27;18.40;99.90
35690;DHT22;26977;44.830;-0.674;2022-10-31T11:02:55;18.40;99.90
35690;DHT22;26977;44.830;-0.674;2022-10-31T11:07:53;18.50;99.90
35690;DHT22;26977;44.830;-0.674;2022-10-31T11:10:20;18.50;99.90
35690;DHT22;26977;44.830;-0.674;2022-10-31T11:15:25;18.60;99.90
35690;DHT22;26977;44.830;-0.674;2022-10-31T11:17:54;18.60;99.90
35690;DHT22;26977;44.830;-0.674;2022-10-31T11:20:24;18.70;99.90
35690;DHT22;26977;44.830;-0.674;2022-10-31T11:23:04;18.70;99.90
35690;DHT22;26977;44.830;-0.674;2022-10-31T11:25:31;18.70;99.90
35690;DHT22;26977;44.830;-0.674;2022-10-31T11:28:01;18.70;99.90
35690;DHT22;26977;44.830;-0.674;2022-10-31T11:30:28;18.70;99.90
35690;DHT22;26977;44.830;-0.674;2022-10-31T11:32:54;18.80;99.90
35690;DHT22;26977;44.830;-0.674;2022-10-31T11:35:22;18.80;99.90
35690;DHT22;26977;44.830;-0.674;2022-10-31T11:37:50;18.80;99.90
35690;DHT22;26977;44.830;-0.674;2022-10-31T11:40:44;18.90;99.90
35690;DHT22;26977;44.830;-0.674;2022-10-31T11:43:17;18.90;99.90
35690;DHT22;26977;44.830;-0.674;2022-10-31T11:45:43;18.90;99.90
35690;DHT22;26977;44.830;-0.674;2022-10-31T11:48:17;18.80;99.90
35690;DHT22;26977;44.830;-0.674;2022-10-31T11:50:54;18.80;99.90
35690;DHT22;26977;44.830;-0.674;2022-10-31T11:53:33;18.80;99.90
35690;DHT22;26977;44.830;-0.674;2022-10-31T11:56:10;18.80;99.90
35690;DHT22;26977;44.830;-0.674;2022-10-31T11:58:37;18.80;99.90
35690;DHT22;26977;44.830;-0.674;2022-10-31T12:01:03;18.80;99.90
35690;DHT22;26977;44.830;-0.674;2022-10-31T12:03:42;18.90;99.90
35690;DHT22;26977;44.830;-0.674;2022-10-31T12:06:24;19.00;99.90
35690;DHT22;26977;44.830;-0.674;2022-10-31T12:08:52;19.20;99.90
35690;DHT22;26977;44.830;-0.674;2022-10-31T12:17:01;19.50;99.90
35690;DHT22;26977;44.830;-0.674;2022-10-31T12:22:22;19.40;99.90
35690;DHT22;26977;44.830;-0.674;2022-10-31T12:24:57;19.50;99.90
35690;DHT22;26977;44.830;-0.674;2022-10-31T12:30:55;19.70;99.90
35690;DHT22;26977;44.830;-0.674;2022-10-31T12:39:04;19.70;99.90
35690;DHT22;26977;44.830;-0.674;2022-10-31T12:41:50;19.70;99.90
35690;DHT22;26977;44.830;-0.674;2022-10-31T12:56:01;19.40;99.90
35690;DHT22;26977;44.830;-0.674;2022-10-31T12:58:39;19.30;99.90
35690;DHT22;26977;44.830;-0.674;2022-10-31T13:01:16;19.30;99.90
35690;DHT22;26977;44.830;-0.674;2022-10-31T13:03:53;19.40;99.90
35690;DHT22;26977;44.830;-0.674;2022-10-31T13:06:29;19.40;99.90
35690;DHT22;26977;44.830;-0.674;2022-10-31T13:09:01;19.40;99.90
35690;DHT22;26977;44.830;-0.674;2022-10-31T13:11:32;19.40;99.90
35690;DHT22;26977;44.830;-0.674;2022-10-31T13:14:10;19.40;99.90
35690;DHT22;26977;44.830;-0.674;2022-10-31T13:16:41;19.40;99.90
35690;DHT22;26977;44.830;-0.674;2022-10-31T13:19:17;19.30;99.90
35690;DHT22;26977;44.830;-0.674;2022-10-31T13:24:23;19.30;99.90
35690;DHT22;26977;44.830;-0.674;2022-10-31T13:26:54;19.20;99.90
35690;DHT22;26977;44.830;-0.674;2022-10-31T13:29:47;19.30;99.90
35690;DHT22;26977;44.830;-0.674;2022-10-31T13:32:16;19.20;99.90
35690;DHT22;26977;44.830;-0.674;2022-10-31T13:34:50;19.20;99.90
35690;DHT22;26977;44.830;-0.674;2022-10-31T13:37:32;19.20;99.90
35690;DHT22;26977;44.830;-0.674;2022-10-31T13:42:55;19.20;99.90
35690;DHT22;26977;44.830;-0.674;2022-10-31T13:45:25;19.10;99.90
35690;DHT22;26977;44.830;-0.674;2022-10-31T13:50:28;18.90;99.90
35690;DHT22;26977;44.830;-0.674;2022-10-31T13:56:32;18.70;99.90
35690;DHT22;26977;44.830;-0.674;2022-10-31T14:01:26;18.70;99.90
35690;DHT22;26977;44.830;-0.674;2022-10-31T14:06:23;18.60;99.90
35690;DHT22;26977;44.830;-0.674;2022-10-31T14:08:59;18.60;99.90
35690;DHT22;26977;44.830;-0.674;2022-10-31T14:11:26;18.60;99.90
35690;DHT22;26977;44.830;-0.674;2022-10-31T14:13:55;18.50;99.90
35690;DHT22;26977;44.830;-0.674;2022-10-31T14:16:27;18.50;99.90
35690;DHT22;26977;44.830;-0.674;2022-10-31T14:19:13;18.50;99.90
35690;DHT22;26977;44.830;-0.674;2022-10-31T14:21:45;18.50;99.90
35690;DHT22;26977;44.830;-0.674;2022-10-31T14:24:33;18.40;99.90
35690;DHT22;26977;44.830;-0.674;2022-10-31T14:27:02;18.40;99.90
35690;DHT22;26977;44.830;-0.674;2022-10-31T14:29:33;18.30;99.90
35690;DHT22;26977;44.830;-0.674;2022-10-31T14:43:02;18.30;99.90
35690;DHT22;26977;44.830;-0.674;2022-10-31T14:45:43;18.30;99.90
35690;DHT22;26977;44.830;-0.674;2022-10-31T14:48:20;18.30;99.90
35690;DHT22;26977;44.830;-0.674;2022-10-31T14:50:52;18.30;99.90
35690;DHT22;26977;44.830;-0.674;2022-10-31T14:53:26;18.30;99.90
35690;DHT22;26977;44.830;-0.674;2022-10-31T14:55:54;18.20;99.90
35690;DHT22;26977;44.830;-0.674;2022-10-31T15:00:59;18.30;99.90
35690;DHT22;26977;44.830;-0.674;2022-10-31T15:03:35;18.30;99.90
35690;DHT22;26977;44.830;-0.674;2022-10-31T15:06:14;18.30;99.90
35690;DHT22;26977;44.830;-0.674;2022-10-31T15:08:45;18.40;99.90
35690;DHT22;26977;44.830;-0.674;2022-10-31T15:11:24;18.40;99.90
35690;DHT22;26977;44.830;-0.674;2022-10-31T15:13:57;18.50;99.90
35690;DHT22;26977;44.830;-0.674;2022-10-31T15:16:28;18.50;99.90
35690;DHT22;26977;44.830;-0.674;2022-10-31T15:19:02;18.50;99.90
35690;DHT22;26977;44.830;-0.674;2022-10-31T15:21:28;18.50;99.90
35690;DHT22;26977;44.830;-0.674;2022-10-31T15:23:58;18.60;99.90
35690;DHT22;26977;44.830;-0.674;2022-10-31T15:26:35;18.60;99.90
35690;DHT22;26977;44.830;-0.674;2022-10-31T15:29:05;18.60;99.90
35690;DHT22;26977;44.830;-0.674;2022-10-31T15:31:35;18.60;99.90
35690;DHT22;26977;44.830;-0.674;2022-10-31T15:34:12;18.60;99.90
35690;DHT22;26977;44.830;-0.674;2022-10-31T15:36:41;18.60;99.90
35690;DHT22;26977;44.830;-0.674;2022-10-31T15:39:13;18.60;99.90
35690;DHT22;26977;44.830;-0.674;2022-10-31T15:41:49;18.50;99.90
35690;DHT22;26977;44.830;-0.674;2022-10-31T15:47:00;18.50;99.90
35690;DHT22;26977;44.830;-0.674;2022-10-31T15:49:37;18.50;99.90
35690;DHT22;26977;44.830;-0.674;2022-10-31T15:52:51;18.50;99.90
35690;DHT22;26977;44.830;-0.674;2022-10-31T15:57:45;18.50;99.90
35690;DHT22;26977;44.830;-0.674;2022-10-31T16:00:44;18.50;99.90
35690;DHT22;26977;44.830;-0.674;2022-10-31T16:13:37;18.40;99.90
35690;DHT22;26977;44.830;-0.674;2022-10-31T16:16:14;18.40;99.90
35690;DHT22;26977;44.830;-0.674;2022-10-31T16:18:41;18.30;99.90
35690;DHT22;26977;44.830;-0.674;2022-10-31T16:21:08;18.40;99.90
35690;DHT22;26977;44.830;-0.674;2022-10-31T16:23:36;18.40;99.90
35690;DHT22;26977;44.830;-0.674;2022-10-31T16:26:07;18.40;99.90
35690;DHT22;26977;44.830;-0.674;2022-10-31T16:28:34;18.40;99.90
35690;DHT22;26977;44.830;-0.674;2022-10-31T16:31:01;18.40;99.90
35690;DHT22;26977;44.830;-0.674;2022-10-31T16:33:35;18.30;99.90
35690;DHT22;26977;44.830;-0.674;2022-10-31T16:38:57;18.30;99.90
35690;DHT22;26977;44.830;-0.674;2022-10-31T16:41:23;18.30;99.90
35690;DHT22;26977;44.830;-0.674;2022-10-31T16:43:50;18.30;99.90
35690;DHT22;26977;44.830;-0.674;2022-10-31T16:46:20;18.30;99.90
35690;DHT22;26977;44.830;-0.674;2022-10-31T16:48:47;18.40;99.90
35690;DHT22;26977;44.830;-0.674;2022-10-31T16:51:13;18.40;99.90
35690;DHT22;26977;44.830;-0.674;2022-10-31T16:53:38;18.40;99.90
35690;DHT22;26977;44.830;-0.674;2022-10-31T16:56:04;18.40;99.90
35690;DHT22;26977;44.830;-0.674;2022-10-31T16:58:34;18.40;99.90
35690;DHT22;26977;44.830;-0.674;2022-10-31T17:01:05;18.50;99.90
35690;DHT22;26977;44.830;-0.674;2022-10-31T17:03:31;18.40;99.90
35690;DHT22;26977;44.830;-0.674;2022-10-31T17:05:57;18.50;99.90
35690;DHT22;26977;44.830;-0.674;2022-10-31T17:08:23;18.50;99.90
35690;DHT22;26977;44.830;-0.674;2022-10-31T17:10:54;18.50;99.90
35690;DHT22;26977;44.830;-0.674;2022-10-31T17:13:24;18.70;99.90
35690;DHT22;26977;44.830;-0.674;2022-10-31T17:15:53;18.80;99.90
35690;DHT22;26977;44.830;-0.674;2022-10-31T17:18:19;18.70;99.90
35690;DHT22;26977;44.830;-0.674;2022-10-31T17:20:46;18.70;99.90
35690;DHT22;26977;44.830;-0.674;2022-10-31T17:23:13;18.80;99.90
35690;DHT22;26977;44.830;-0.674;2022-10-31T17:25:40;18.90;99.90
35690;DHT22;26977;44.830;-0.674;2022-10-31T17:28:06;19.10;99.90
35690;DHT22;26977;44.830;-0.674;2022-10-31T17:30:37;19.10;99.90
35690;DHT22;26977;44.830;-0.674;2022-10-31T17:33:03;19.10;99.90
35690;DHT22;26977;44.830;-0.674;2022-10-31T17:35:28;19.30;99.90
35690;DHT22;26977;44.830;-0.674;2022-10-31T17:37:54;19.30;99.90
35690;DHT22;26977;44.830;-0.674;2022-10-31T17:40:21;19.40;99.90
35690;DHT22;26977;44.830;-0.674;2022-10-31T17:42:50;19.50;99.90
35690;DHT22;26977;44.830;-0.674;2022-10-31T17:45:16;19.50;99.90
35690;DHT22;26977;44.830;-0.674;2022-10-31T17:47:42;19.50;99.90
35690;DHT22;26977;44.830;-0.674;2022-10-31T17:50:10;19.20;99.90
35690;DHT22;26977;44.830;-0.674;2022-10-31T17:52:36;18.80;99.90
35690;DHT22;26977;44.830;-0.674;2022-10-31T17:55:02;18.80;99.90
35690;DHT22;26977;44.830;-0.674;2022-10-31T17:57:32;18.70;99.90
35690;DHT22;26977;44.830;-0.674;2022-10-31T17:59:58;18.60;99.90
35690;DHT22;26977;44.830;-0.674;2022-10-31T18:02:24;18.50;99.90
35690;DHT22;26977;44.830;-0.674;2022-10-31T18:04:50;18.60;99.90
35690;DHT22;26977;44.830;-0.674;2022-10-31T18:07:16;18.50;99.90
35690;DHT22;26977;44.830;-0.674;2022-10-31T18:09:45;18.50;99.90
35690;DHT22;26977;44.830;-0.674;2022-10-31T18:12:11;18.40;99.90
35690;DHT22;26977;44.830;-0.674;2022-10-31T18:14:37;18.40;99.90